sensor_id;sensor_type;location;lat;lon;timestamp;pressure;altitude;pressure_sealevel;temperature;humidity
39699;BME280;25372;50.582;12.250;2023-03-22T00:07:54;99529.66;;;8.63;85.77
39699;BME280;25372;50.582;12.250;2023-03-22T00:18:16;99536.19;;;8.71;84.48
39699;BME280;25372;50.582;12.250;2023-03-22T00:28:39;99527.22;;;8.60;85.04
39699;BME280;25372;50.582;12.250;2023-03-22T00:39:00;99508.25;;;8.57;84.61
39699;BME280;25372;50.582;12.250;2023-03-22T00:49:23;99492.03;;;8.35;84.17
39699;BME280;25372;50.582;12.250;2023-03-22T00:59:44;99490.84;;;7.96;85.17
39699;BME280;25372;50.582;12.250;2023-03-22T01:10:07;99490.13;;;7.78;85.81
39699;BME280;25372;50.582;12.250;2023-03-22T01:20:31;99486.47;;;7.34;86.56
39699;BME280;25372;50.582;12.250;2023-03-22T01:30:53;99472.84;;;6.96;87.35
39699;BME280;25372;50.582;12.250;2023-03-22T01:41:15;99463.59;;;6.57;88.09
39699;BME280;25372;50.582;12.250;2023-03-22T01:51:38;99448.28;;;6.17;88.50
39699;BME280;25372;50.582;12.250;2023-03-22T02:02:12;99452.25;;;5.71;88.24
39699;BME280;25372;50.582;12.250;2023-03-22T02:12:52;99446.03;;;5.56;89.03
39699;BME280;25372;50.582;12.250;2023-03-22T02:23:48;99443.56;;;5.36;89.13
39699;BME280;25372;50.582;12.250;2023-03-22T02:34:27;99462.78;;;4.96;89.05
39699;BME280;25372;50.582;12.250;2023-03-22T02:44:58;99442.66;;;5.00;89.41
39699;BME280;25372;50.582;12.250;2023-03-22T02:55:27;99441.25;;;4.73;89.17
39699;BME280;25372;50.582;12.250;2023-03-22T03:05:53;99444.75;;;4.53;89.06
39699;BME280;25372;50.582;12.250;2023-03-22T03:16:16;99437.84;;;4.33;89.33
39699;BME280;25372;50.582;12.250;2023-03-22T03:26:47;99449.63;;;4.21;89.61
39699;BME280;25372;50.582;12.250;2023-03-22T03:37:14;99444.50;;;4.19;89.61
39699;BME280;25372;50.582;12.250;2023-03-22T03:47:38;99420.59;;;5.26;87.13
39699;BME280;25372;50.582;12.250;2023-03-22T03:57:59;99440.41;;;5.11;86.65
39699;BME280;25372;50.582;12.250;2023-03-22T04:08:21;99424.16;;;4.87;86.92
39699;BME280;25372;50.582;12.250;2023-03-22T04:18:42;99421.66;;;5.22;85.62
39699;BME280;25372;50.582;12.250;2023-03-22T04:29:06;99413.00;;;5.39;85.24
39699;BME280;25372;50.582;12.250;2023-03-22T04:39:33;99422.78;;;5.71;83.88
39699;BME280;25372;50.582;12.250;2023-03-22T04:50:18;99407.03;;;5.37;83.58
39699;BME280;25372;50.582;12.250;2023-03-22T05:00:46;99416.38;;;5.41;83.47
39699;BME280;25372;50.582;12.250;2023-03-22T05:11:11;99415.94;;;5.51;83.51
39699;BME280;25372;50.582;12.250;2023-03-22T05:21:36;99408.59;;;5.77;82.15
39699;BME280;25372;50.582;12.250;2023-03-22T05:32:00;99410.34;;;6.11;81.24
39699;BME280;25372;50.582;12.250;2023-03-22T05:42:22;99415.97;;;6.37;81.15
39699;BME280;25372;50.582;12.250;2023-03-22T05:52:46;99413.91;;;6.76;79.86
39699;BME280;25372;50.582;12.250;2023-03-22T06:03:13;99398.00;;;7.44;76.22
39699;BME280;25372;50.582;12.250;2023-03-22T06:13:39;99409.59;;;7.99;74.10
39699;BME280;25372;50.582;12.250;2023-03-22T06:24:01;99396.63;;;8.41;72.58
39699;BME280;25372;50.582;12.250;2023-03-22T06:34:24;99396.16;;;8.63;72.55
39699;BME280;25372;50.582;12.250;2023-03-22T06:44:45;99406.59;;;8.78;73.05
39699;BME280;25372;50.582;12.250;2023-03-22T06:55:28;99393.34;;;9.08;71.09
39699;BME280;25372;50.582;12.250;2023-03-22T07:05:52;99398.22;;;9.81;70.76
39699;BME280;25372;50.582;12.250;2023-03-22T07:16:21;99392.78;;;10.10;70.11
39699;BME280;25372;50.582;12.250;2023-03-22T07:26:49;99396.41;;;10.33;69.41
39699;BME280;25372;50.582;12.250;2023-03-22T07:37:16;99399.47;;;10.27;69.17
39699;BME280;25372;50.582;12.250;2023-03-22T07:47:38;99400.28;;;10.41;69.71
39699;BME280;25372;50.582;12.250;2023-03-22T07:58:14;99394.44;;;10.87;68.05
39699;BME280;25372;50.582;12.250;2023-03-22T08:08:36;99394.16;;;11.28;66.09
39699;BME280;25372;50.582;12.250;2023-03-22T08:18:59;99392.81;;;12.73;60.00
39699;BME280;25372;50.582;12.250;2023-03-22T08:29:21;99388.78;;;13.67;57.92
39699;BME280;25372;50.582;12.250;2023-03-22T08:39:44;99383.97;;;13.94;56.81
39699;BME280;25372;50.582;12.250;2023-03-22T08:50:10;99384.31;;;14.10;55.77
39699;BME280;25372;50.582;12.250;2023-03-22T09:00:41;99378.53;;;14.26;55.09
39699;BME280;25372;50.582;12.250;2023-03-22T09:11:12;99365.59;;;14.64;53.12
39699;BME280;25372;50.582;12.250;2023-03-22T09:21:36;99358.28;;;14.88;54.08
39699;BME280;25372;50.582;12.250;2023-03-22T09:32:05;99344.84;;;15.10;53.03
39699;BME280;25372;50.582;12.250;2023-03-22T09:42:33;99339.09;;;15.15;52.24
39699;BME280;25372;50.582;12.250;2023-03-22T09:52:58;99306.56;;;14.85;50.81
39699;BME280;25372;50.582;12.250;2023-03-22T10:03:31;99314.88;;;14.20;53.21
39699;BME280;25372;50.582;12.250;2023-03-22T10:14:01;99308.22;;;14.35;50.99
39699;BME280;25372;50.582;12.250;2023-03-22T10:24:27;99303.91;;;14.85;52.10
39699;BME280;25372;50.582;12.250;2023-03-22T10:34:50;99299.25;;;16.04;48.87
39699;BME280;25372;50.582;12.250;2023-03-22T10:45:13;99278.03;;;15.66;48.68
39699;BME280;25372;50.582;12.250;2023-03-22T10:55:38;99268.00;;;15.70;51.39
39699;BME280;25372;50.582;12.250;2023-03-22T11:06:05;99255.16;;;16.77;46.21
39699;BME280;25372;50.582;12.250;2023-03-22T11:16:27;99250.22;;;16.00;49.54
39699;BME280;25372;50.582;12.250;2023-03-22T11:27:03;99214.50;;;16.32;49.06
39699;BME280;25372;50.582;12.250;2023-03-22T11:37:24;99197.38;;;16.26;45.60
39699;BME280;25372;50.582;12.250;2023-03-22T11:47:47;99184.63;;;16.12;47.74
39699;BME280;25372;50.582;12.250;2023-03-22T11:58:23;99174.97;;;16.57;49.06
39699;BME280;25372;50.582;12.250;2023-03-22T12:08:49;99161.66;;;16.48;47.52
39699;BME280;25372;50.582;12.250;2023-03-22T12:19:18;99150.44;;;16.99;47.04
39699;BME280;25372;50.582;12.250;2023-03-22T12:29:45;99140.50;;;16.75;47.15
39699;BME280;25372;50.582;12.250;2023-03-22T12:40:07;99143.78;;;17.22;46.50
39699;BME280;25372;50.582;12.250;2023-03-22T12:50:41;99132.19;;;17.23;44.53
39699;BME280;25372;50.582;12.250;2023-03-22T13:01:13;99115.00;;;17.95;43.69
39699;BME280;25372;50.582;12.250;2023-03-22T13:11:38;99118.41;;;17.19;43.67
39699;BME280;25372;50.582;12.250;2023-03-22T13:22:13;99104.28;;;17.53;44.18
39699;BME280;25372;50.582;12.250;2023-03-22T13:32:36;99091.38;;;16.89;43.14
39699;BME280;25372;50.582;12.250;2023-03-22T13:43:09;99086.03;;;17.50;45.28
39699;BME280;25372;50.582;12.250;2023-03-22T13:53:32;99066.94;;;17.46;43.51
39699;BME280;25372;50.582;12.250;2023-03-22T14:03:57;99060.00;;;17.54;43.22
39699;BME280;25372;50.582;12.250;2023-03-22T14:14:24;99054.41;;;16.87;45.82
39699;BME280;25372;50.582;12.250;2023-03-22T14:24:48;99053.59;;;17.22;45.30
39699;BME280;25372;50.582;12.250;2023-03-22T14:35:18;99039.91;;;16.73;47.05
39699;BME280;25372;50.582;12.250;2023-03-22T14:45:40;99047.34;;;17.31;46.02
39699;BME280;25372;50.582;12.250;2023-03-22T14:56:06;99037.84;;;19.51;41.70
39699;BME280;25372;50.582;12.250;2023-03-22T15:06:28;99027.78;;;19.29;40.69
39699;BME280;25372;50.582;12.250;2023-03-22T15:16:51;99014.81;;;19.03;40.40
39699;BME280;25372;50.582;12.250;2023-03-22T15:27:15;99011.25;;;18.54;40.34
39699;BME280;25372;50.582;12.250;2023-03-22T15:37:39;99015.97;;;17.26;42.66
39699;BME280;25372;50.582;12.250;2023-03-22T15:48:03;99016.50;;;16.34;43.68
39699;BME280;25372;50.582;12.250;2023-03-22T15:58:28;99030.28;;;17.33;42.76
39699;BME280;25372;50.582;12.250;2023-03-22T16:08:50;99041.56;;;16.74;42.89
39699;BME280;25372;50.582;12.250;2023-03-22T16:19:12;99032.97;;;15.09;46.33
39699;BME280;25372;50.582;12.250;2023-03-22T16:29:33;99054.56;;;14.47;47.42
39699;BME280;25372;50.582;12.250;2023-03-22T16:39:56;99059.34;;;13.94;47.86
39699;BME280;25372;50.582;12.250;2023-03-22T16:50:17;99046.97;;;13.34;48.75
39699;BME280;25372;50.582;12.250;2023-03-22T17:00:40;99059.47;;;12.91;50.54
39699;BME280;25372;50.582;12.250;2023-03-22T17:11:00;99062.75;;;12.19;53.27
39699;BME280;25372;50.582;12.250;2023-03-22T17:21:22;99063.91;;;11.61;55.22
39699;BME280;25372;50.582;12.250;2023-03-22T17:31:43;99082.97;;;11.08;57.24
39699;BME280;25372;50.582;12.250;2023-03-22T17:42:09;99095.09;;;10.39;58.14
39699;BME280;25372;50.582;12.250;2023-03-22T17:52:31;99122.59;;;10.21;61.04
39699;BME280;25372;50.582;12.250;2023-03-22T18:02:54;99135.09;;;9.56;63.53
39699;BME280;25372;50.582;12.250;2023-03-22T18:13:14;99147.09;;;8.95;67.40
39699;BME280;25372;50.582;12.250;2023-03-22T18:23:37;99143.53;;;9.35;63.69
39699;BME280;25372;50.582;12.250;2023-03-22T18:33:58;99151.34;;;9.61;61.97
39699;BME280;25372;50.582;12.250;2023-03-22T18:44:21;99152.81;;;9.65;61.91
39699;BME280;25372;50.582;12.250;2023-03-22T18:54:42;99164.69;;;9.45;63.90
39699;BME280;25372;50.582;12.250;2023-03-22T19:05:05;99169.50;;;9.38;65.74
39699;BME280;25372;50.582;12.250;2023-03-22T19:15:26;99160.78;;;9.51;64.18
39699;BME280;25372;50.582;12.250;2023-03-22T19:25:48;99165.63;;;9.44;63.22
39699;BME280;25372;50.582;12.250;2023-03-22T19:36:09;99143.53;;;9.22;64.13
39699;BME280;25372;50.582;12.250;2023-03-22T19:46:32;99151.59;;;9.32;63.72
39699;BME280;25372;50.582;12.250;2023-03-22T19:56:53;99158.69;;;9.56;63.34
39699;BME280;25372;50.582;12.250;2023-03-22T20:07:16;99159.53;;;9.57;63.20
39699;BME280;25372;50.582;12.250;2023-03-22T20:17:39;99155.44;;;9.52;62.40
39699;BME280;25372;50.582;12.250;2023-03-22T20:28:01;99161.16;;;9.33;63.58
39699;BME280;25372;50.582;12.250;2023-03-22T20:38:22;99142.81;;;9.33;63.24
39699;BME280;25372;50.582;12.250;2023-03-22T20:48:45;99135.19;;;9.55;62.65
39699;BME280;25372;50.582;12.250;2023-03-22T20:59:08;99122.00;;;9.56;63.74
39699;BME280;25372;50.582;12.250;2023-03-22T21:09:33;99140.81;;;9.74;63.62
39699;BME280;25372;50.582;12.250;2023-03-22T21:19:56;99141.53;;;9.76;63.01
39699;BME280;25372;50.582;12.250;2023-03-22T21:30:18;99138.81;;;9.78;63.36
39699;BME280;25372;50.582;12.250;2023-03-22T21:40:38;99152.03;;;9.76;63.52
39699;BME280;25372;50.582;12.250;2023-03-22T21:51:01;99141.63;;;10.12;63.26
39699;BME280;25372;50.582;12.250;2023-03-22T22:01:22;99112.63;;;10.02;65.92
39699;BME280;25372;50.582;12.250;2023-03-22T22:11:44;99099.25;;;10.30;64.41
39699;BME280;25372;50.582;12.250;2023-03-22T22:22:05;99070.38;;;10.18;65.34
39699;BME280;25372;50.582;12.250;2023-03-22T22:32:28;99071.91;;;10.21;66.63
39699;BME280;25372;50.582;12.250;2023-03-22T22:42:49;99066.59;;;10.10;65.77
39699;BME280;25372;50.582;12.250;2023-03-22T22:53:11;99068.13;;;10.01;66.50
39699;BME280;25372;50.582;12.250;2023-03-22T23:03:31;99062.88;;;10.01;68.13
39699;BME280;25372;50.582;12.250;2023-03-22T23:13:54;99053.63;;;10.08;66.28
39699;BME280;25372;50.582;12.250;2023-03-22T23:24:16;99043.34;;;10.41;63.36
39699;BME280;25372;50.582;12.250;2023-03-22T23:34:39;99023.44;;;10.49;63.66
39699;BME280;25372;50.582;12.250;2023-03-22T23:45:01;99036.28;;;10.30;63.59
39699;BME280;25372;50.582;12.250;2023-03-22T23:55:22;99020.72;;;10.51;62.72
